Latest Weather Observations for Dennes Point

IDT60801

Issued at 5:21 am EDT Sunday 25 October 2020 (issued every 10 minutes, with the page automatically refreshed every 10 minutes)

About weather observations | Map of weather stations | Latest weather observations for TAS | Other Formats
Station Details ID: 094255 Name: DENNES POINT Lat: -43.06 Lon: 147.36 Height: 5.67 m
Data from the previous 72 hours. | See also: Recent months at Dennes Point
Date/Time
EDT
Temp
°C
App
Temp
°C
Dew
Point
°C
Rel
Hum
%
Delta-T
°C
Wind Press
QNH
hPa
Press
MSL
hPa
Rain since
9am
mm
Dir  Spd
km/h
Gust
km/h
Spd
kts
Gust
kts
25/05:00am 5.3 -0.7 1.2 75 1.6 WSW 22 30 12 16 1018.3 1018.3 0.6
25/04:30am 6.2 0.6 1.5 72 1.9 SW 20 43 11 23 1018.1 1018.1 0.6
25/04:00am 6.2 0.7 0.7 68 2.2 SW 19 32 10 17 1017.3 1017.3 0.6
25/03:30am 5.8 0.3 0.8 70 2.0 SW 19 24 10 13 1016.9 1016.9 0.6
25/03:00am 5.4 -0.2 1.5 76 1.5 SW 20 28 11 15 1016.2 1016.2 0.6
25/02:31am 5.5 -2.4 2.2 79 1.3 WSW 33 54 18 29 1015.8 1015.8 0.4
25/02:30am 5.4 -2.9 2.1 79 1.3 WSW 35 54 19 29 1015.8 1015.8 0.4
25/02:22am 5.7 -2.1 1.8 76 1.6 WSW 32 54 17 29 1015.5 1015.5 0.4
25/02:00am 5.3 -0.7 1.1 74 1.6 SSW 22 37 12 20 1015.4 1015.4 0.4
25/01:30am 6.3 -0.1 0.8 68 2.2 WSW 24 30 13 16 1014.8 1014.8 0.4
25/01:00am 6.5 -0.7 0.8 67 2.2 WSW 28 39 15 21 1014.4 1014.4 0.4
25/12:30am 6.5 -1.0 1.4 70 2.0 WSW 30 37 16 20 1013.8 1013.8 0.4
25/12:00am 6.3 -0.4 1.2 70 2.0 WSW 26 33 14 18 1013.5 1013.5 0.4
 
Date/Time
EDT
Temp
°C
App
Temp
°C
Dew
Point
°C
Rel
Hum
%
Delta-T
°C
Wind Press
QNH
hPa
Press
MSL
hPa
Rain since
9am
mm
Dir  Spd
km/h
Gust
km/h
Spd
kts
Gust
kts
24/11:30pm 6.8 -0.4 0.9 66 2.3 WSW 28 37 15 20 1013.3 1013.3 0.4
24/11:04pm 7.2 0.0 0.4 62 2.7 SSW 28 48 15 26 1013.1 1013.1 0.4
24/11:00pm 7.3 0.5 0.7 63 2.6 SW 26 39 14 21 1013.0 1013.0 0.4
24/10:30pm 7.5 0.9 1.8 67 2.3 WSW 26 32 14 17 1012.3 1012.3 0.4
24/10:00pm 7.6 1.4 2.3 69 2.2 WSW 24 32 13 17 1012.0 1012.0 0.4
24/09:30pm 7.4 0.5 2.7 72 2.0 WSW 28 33 15 18 1011.5 1011.5 0.4
24/09:00pm 7.4 0.7 3.5 76 1.7 SW 28 41 15 22 1010.6 1010.6 0.4
24/08:30pm 6.9 0.6 3.5 79 1.4 SW 26 44 14 24 1009.9 1009.9 0.4
24/08:00pm 7.7 1.0 3.6 75 1.8 SW 28 43 15 23 1009.1 1009.1 0.2
24/07:30pm 8.3 2.9 4.7 78 1.6 WSW 22 28 12 15 1008.1 1008.1 0.2
24/07:00pm 8.5 3.0 4.1 74 1.9 SW 22 33 12 18 1007.4 1007.4 0.0
24/06:30pm 10.1 6.9 5.3 72 2.2 WSW 11 17 6 9 1006.8 1006.8 0.0
24/06:29pm 10.2 7.1 5.4 72 2.2 WSW 11 17 6 9 1006.8 1006.8 0.0
24/06:00pm 9.2 0.3 5.0 75 1.9 WSW 41 52 22 28 1005.8 1005.8 0.0
24/05:34pm 12.5 4.9 3.7 55 3.9 WSW 33 54 18 29 1004.7 1004.7 0.0
24/05:30pm 12.6 5.8 3.3 53 4.1 WSW 28 39 15 21 1004.7 1004.7 0.0
24/05:00pm 14.2 7.0 3.1 47 5.0 WSW 30 39 16 21 1004.0 1004.0 0.0
24/04:30pm 15.5 9.2 3.9 46 5.3 W 26 33 14 18 1003.6 1003.5 0.0
24/04:00pm 15.4 8.9 2.6 42 5.8 W 26 33 14 18 1003.4 1003.3 0.0
24/03:30pm 13.9 6.3 0.5 40 5.7 W 30 43 16 23 1003.2 1003.1 0.0
24/03:00pm 15.2 6.9 2.1 41 5.8 W 35 56 19 30 1002.9 1002.8 0.0
24/02:54pm 15.1 8.4 3.9 47 5.1 WSW 28 56 15 30 1002.7 1002.6 0.0
24/02:30pm 15.0 9.9 4.1 48 5.0 WSW 20 30 11 16 1002.9 1002.8 0.0
24/02:00pm 14.4 7.2 5.0 53 4.4 SW 32 44 17 24 1002.8 1002.7 0.0
24/01:50pm 14.8 8.6 4.5 50 4.8 WSW 26 37 14 20 1002.7 1002.6 0.0
24/01:30pm 14.4 5.8 4.4 51 4.6 W 39 48 21 26 1002.6 1002.5 0.0
24/01:19pm 14.2 6.7 4.5 52 4.5 W 33 48 18 26 1002.5 1002.4 0.0
24/01:00pm 16.1 10.7 4.5 46 5.5 WNW 22 28 12 15 1002.3 1002.2 0.0
24/12:30pm 15.8 9.1 5.7 51 4.8 W 30 37 16 20 1002.4 1002.3 0.0
24/12:24pm 15.4 9.1 5.9 53 4.6 W 28 35 15 19 1002.4 1002.3 0.0
24/12:00pm 13.8 11.7 6.7 62 3.4 SW 7 15 4 8 1002.7 1002.6 0.0
24/11:30am 14.1 12.5 7.9 66 3.1 SW 6 11 3 6 1002.9 1002.8 0.0
24/11:00am 13.0 11.2 7.2 68 2.8 SSW 6 13 3 7 1002.9 1002.8 0.0
24/10:30am 12.2 9.4 7.1 71 2.5 S 11 19 6 10 1002.8 1002.7 0.0
24/10:00am 13.2 9.8 5.9 61 3.5 SW 13 19 7 10 1002.5 1002.4 0.0
24/09:30am 13.3 7.4 5.7 60 3.6 WSW 26 39 14 21 1002.3 1002.2 0.0
24/09:00am 14.0 9.9 6.1 59 3.8 WSW 17 22 9 12 1002.5 1002.4 0.0
24/08:30am 11.8 5.8 5.2 64 3.0 WSW 26 37 14 20 1002.5 1002.4 0.0
24/08:00am 11.9 5.1 5.1 63 3.1 WSW 30 35 16 19 1002.2 1002.1 0.0
24/07:30am 11.7 7.9 6.0 68 2.7 SW 15 24 8 13 1002.1 1002.0 0.0
24/07:00am 11.7 7.6 6.0 68 2.7 SW 17 26 9 14 1002.2 1002.1 0.0
24/06:30am 11.9 7.2 6.2 68 2.7 WSW 20 24 11 13 1001.9 1001.9 0.0
24/06:00am 11.6 6.6 6.3 70 2.5 WSW 22 32 12 17 1001.8 1001.8 0.0
24/05:52am 11.7 7.2 6.0 68 2.7 SW 19 32 10 17 1001.8 1001.8 0.0
24/05:30am 11.2 9.4 7.1 76 2.0 SW 6 9 3 5 1001.9 1001.9 0.0
24/05:00am 11.8 10.2 7.9 77 1.9 SW 6 11 3 6 1002.1 1002.0 0.0
24/04:30am 12.0 10.3 7.5 74 2.2 S 6 7 3 4 1002.2 1002.1 0.0
24/04:00am 12.0 10.4 8.1 77 1.9 SW 6 11 3 6 1002.4 1002.3 0.0
24/03:30am 11.6 10.1 8.6 82 1.5 WSW 6 9 3 5 1002.4 1002.3 0.0
24/03:00am 11.3 10.8 8.0 80 1.6 CALM 0 0 0 0 1002.6 1002.5 0.0
24/02:30am 11.2 10.0 7.9 80 1.6 S 4 7 2 4 1002.7 1002.6 0.0
24/02:00am 11.0 9.4 7.9 81 1.5 SSW 6 6 3 3 1003.0 1002.9 0.0
24/01:30am 11.0 9.4 8.6 85 1.2 SW 7 9 4 5 1003.2 1003.1 0.0
24/01:00am 11.3 10.8 8.0 80 1.6 CALM 0 2 0 1 1003.8 1003.7 0.0
24/12:30am 11.3 9.6 8.2 81 1.5 SW 7 9 4 5 1003.8 1003.7 0.0
24/12:00am 11.3 9.6 8.3 82 1.5 SW 7 9 4 5 1003.8 1003.7 0.0
 
Date/Time
EDT
Temp
°C
App
Temp
°C
Dew
Point
°C
Rel
Hum
%
Delta-T
°C
Wind Press
QNH
hPa
Press
MSL
hPa
Rain since
9am
mm
Dir  Spd
km/h
Gust
km/h
Spd
kts
Gust
kts
23/11:30pm 11.1 9.3 8.0 81 1.5 SW 7 9 4 5 1004.0 1004.0 0.0
23/11:00pm 11.4 9.9 8.4 82 1.5 SSW 6 7 3 4 1004.4 1004.4 0.0
23/10:30pm 11.6 9.9 8.5 81 1.5 SSW 7 7 4 4 1005.1 1005.1 0.0
23/10:00pm 11.3 9.7 8.0 80 1.6 SSW 6 7 3 4 1005.3 1005.3 0.0
23/09:30pm 11.2 9.5 7.7 79 1.7 SSW 6 7 3 4 1005.6 1005.6 0.0
23/09:00pm 11.1 9.4 7.6 79 1.7 SSW 6 6 3 3 1005.8 1005.8 0.0
23/08:30pm 11.4 10.8 7.3 76 2.0 CALM 0 0 0 0 1005.8 1005.8 0.0
23/08:00pm 11.6 10.9 6.9 73 2.2 CALM 0 2 0 1 1005.7 1005.7 0.0
23/07:30pm 12.4 11.9 7.7 73 2.3 CALM 0 0 0 0 1005.7 1005.7 0.0
23/07:00pm 12.6 11.2 7.3 70 2.6 SSE 4 7 2 4 1005.7 1005.7 0.0
23/06:30pm 12.7 11.0 7.4 70 2.6 SE 6 9 3 5 1006.0 1006.0 0.0
23/06:00pm 12.9 11.2 7.6 70 2.6 SSE 6 9 3 5 1006.0 1006.0 0.0
23/05:30pm 13.3 10.8 8.2 71 2.5 SE 11 17 6 9 1005.8 1005.8 0.0
23/05:00pm 13.2 10.5 7.4 68 2.8 ESE 11 17 6 9 1005.9 1005.9 0.0
23/04:30pm 13.1 10.2 8.2 72 2.4 ESE 13 19 7 10 1006.1 1006.1 0.0
23/04:00pm 13.2 10.1 8.9 75 2.2 ESE 15 22 8 12 1006.0 1006.0 0.0
23/03:30pm 13.8 10.5 9.5 75 2.2 ESE 17 24 9 13 1006.2 1006.2 0.0
23/03:00pm 13.0 9.2 9.1 77 2.0 ESE 19 26 10 14 1006.6 1006.6 0.0
23/02:30pm 14.6 10.6 10.6 77 2.1 ESE 22 28 12 15 1006.9 1006.9 0.0
23/02:00pm 13.4 9.8 9.8 79 1.9 ESE 19 26 10 14 1007.3 1007.3 0.0
23/01:30pm 13.9 10.2 10.1 78 2.0 ESE 20 26 11 14 1007.6 1007.6 0.0
23/01:00pm 14.7 11.8 11.1 79 1.9 ESE 17 22 9 12 1007.9 1007.9 0.0
23/12:30pm 15.1 14.5 10.3 73 2.5 ESE 4 11 2 6 1008.1 1008.1 0.0
23/12:00pm 14.9 14.3 10.5 75 2.3 WNW 4 6 2 3 1008.4 1008.4 0.0
23/11:30am 14.4 14.1 10.0 75 2.3 SW 2 7 1 4 1008.7 1008.7 0.0
23/11:00am 14.4 14.3 9.6 73 2.5 CALM 0 0 0 0 1009.1 1009.1 0.0
23/10:30am 14.1 14.1 9.7 75 2.3 CALM 0 2 0 1 1009.3 1009.3 0.0
23/10:00am 13.9 13.1 9.7 76 2.2 NNE 4 6 2 3 1009.6 1009.6 0.0
23/09:30am 13.4 12.2 10.2 81 1.7 NNE 7 7 4 4 1009.7 1009.7 0.0
23/09:00am 13.2 11.7 10.4 83 1.5 NNE 9 11 5 6 1009.8 1009.8 0.0
23/08:30am 12.2 11.8 9.8 85 1.2 NNW 2 6 1 3 1010.3 1010.3 0.0
23/08:00am 11.6 10.9 10.2 91 0.7 SW 4 6 2 3 1010.4 1010.4 0.0
23/07:30am 10.6 9.2 9.7 94 0.5 SSW 7 9 4 5 1010.5 1010.5 0.0
23/07:00am 9.8 9.6 9.0 95 0.4 CALM 0 4 0 2 1010.5 1010.5 0.0
23/06:30am 8.9 6.4 8.3 96 0.3 SSW 11 13 6 7 1010.5 1010.5 0.0
23/06:00am 8.5 5.9 7.9 96 0.3 SSW 11 13 6 7 1010.4 1010.4 0.0
23/05:30am 9.0 7.3 8.2 95 0.4 SSW 7 9 4 5 1010.5 1010.5 0.0
23/05:00am 9.0 7.3 8.2 95 0.4 SSW 7 9 4 5 1010.8 1010.8 0.0
23/04:30am 9.3 7.3 8.5 95 0.4 SSW 9 11 5 6 1010.9 1010.9 0.0
23/04:00am 8.9 7.3 8.0 94 0.4 SSW 6 7 3 4 1011.1 1011.1 0.0
23/03:30am 9.3 8.2 8.4 94 0.4 SSW 4 6 2 3 1011.3 1011.3 0.0
23/03:00am 9.0 7.4 7.9 93 0.5 SSW 6 6 3 3 1011.8 1011.8 0.0
23/02:30am 10.2 8.3 9.1 93 0.5 SW 9 13 5 7 1012.1 1012.1 0.0
23/02:00am 10.4 8.9 9.3 93 0.5 SSW 7 9 4 5 1012.7 1012.7 0.0
23/01:30am 10.4 8.9 9.3 93 0.5 SW 7 9 4 5 1013.3 1013.3 0.0
23/01:00am 10.3 8.4 9.2 93 0.5 SW 9 11 5 6 1013.6 1013.6 0.0
23/12:30am 10.3 8.7 8.9 91 0.7 SW 7 11 4 6 1014.1 1014.1 0.0
23/12:00am 10.5 8.4 8.4 87 1.0 S 9 11 5 6 1014.4 1014.4 0.0
 
Date/Time
EDT
Temp
°C
App
Temp
°C
Dew
Point
°C
Rel
Hum
%
Delta-T
°C
Wind Press
QNH
hPa
Press
MSL
hPa
Rain since
9am
mm
Dir  Spd
km/h
Gust
km/h
Spd
kts
Gust
kts
22/11:30pm 10.9 9.3 8.1 83 1.4 SSW 6 7 3 4 1014.9 1014.9 0.0
22/11:00pm 12.0 10.3 8.3 78 1.8 NNW 7 11 4 6 1015.2 1015.2 0.0
22/10:30pm 12.4 9.6 8.7 78 1.8 N 13 19 7 10 1015.2 1015.2 0.0
22/10:00pm 12.5 9.4 9.0 79 1.8 NE 15 20 8 11 1015.6 1015.6 0.0
22/09:30pm 12.4 10.3 8.1 75 2.1 ENE 9 19 5 10 1016.0 1016.0 0.0
22/09:00pm 11.3 10.2 6.8 74 2.1 SSE 2 6 1 3 1016.0 1016.0 0.0
22/08:30pm 11.4 9.8 6.5 72 2.3 S 4 7 2 4 1015.9 1015.9 0.0
22/08:00pm 11.5 9.4 5.8 68 2.6 SSE 6 7 3 4 1015.9 1015.9 0.0
22/07:30pm 11.4 10.1 5.9 69 2.6 S 2 9 1 5 1016.0 1016.0 0.0
22/07:00pm 11.6 9.3 5.7 67 2.7 SE 7 11 4 6 1015.8 1015.8 0.0
22/06:30pm 11.5 9.1 5.4 66 2.8 SSE 7 11 4 6 1015.8 1015.8 0.0
22/06:00pm 11.8 9.1 5.7 66 2.8 SSE 9 13 5 7 1015.7 1015.7 0.0
22/05:30pm 11.8 8.7 5.7 66 2.8 SSE 11 17 6 9 1015.7 1015.7 0.0
22/05:00pm 12.2 10.0 6.0 66 2.9 SE 7 13 4 7 1015.8 1015.8 0.0
22/04:30pm 12.7 9.8 6.7 67 2.9 SE 11 17 6 9 1015.8 1015.8 0.0
22/04:00pm 12.6 8.4 7.3 70 2.6 ESE 19 26 10 14 1015.8 1015.8 0.0
22/03:30pm 12.4 7.9 6.9 69 2.6 ESE 20 32 11 17 1015.8 1015.8 0.0
22/03:00pm 12.5 8.1 6.5 67 2.9 ESE 19 26 10 14 1015.8 1015.8 0.0
22/02:30pm 13.4 9.1 7.2 66 3.0 ESE 19 24 10 13 1015.9 1015.9 0.0
22/02:00pm 13.8 9.9 6.9 63 3.3 ESE 17 20 9 11 1016.1 1016.1 0.0
22/01:30pm 14.4 11.0 7.5 63 3.4 ESE 15 17 8 9 1016.2 1016.2 0.0
22/01:00pm 14.7 11.8 8.2 65 3.3 E 13 17 7 9 1016.3 1016.3 0.0
22/12:30pm 14.8 12.0 8.5 66 3.2 E 13 17 7 9 1016.4 1016.4 0.0
22/12:00pm 14.6 11.6 7.9 64 3.3 E 13 17 7 9 1016.7 1016.7 0.0
22/11:30am 14.7 12.2 8.4 66 3.2 E 11 13 6 7 1017.0 1017.0 0.0
22/11:00am 14.2 11.9 7.5 64 3.3 E 9 9 5 5 1017.1 1017.1 0.0
22/10:30am 13.4 11.6 7.2 66 3.0 NE 6 7 3 4 1017.2 1017.2 0.0
22/10:00am 12.6 11.1 6.6 67 2.9 NW 4 6 2 3 1017.4 1017.4 0.0
22/09:30am 11.8 10.5 7.5 75 2.1 WSW 4 6 2 3 1017.5 1017.5 0.0
22/09:00am 11.3 9.9 9.0 86 1.1 WSW 6 7 3 4 1017.5 1017.5 1.2
22/08:30am 10.9 10.0 9.3 90 0.8 WSW 4 6 2 3 1017.5 1017.5 1.2
22/08:00am 10.2 8.7 9.0 92 0.6 WSW 7 9 4 5 1017.3 1017.3 1.2
22/07:30am 9.8 8.4 8.9 94 0.4 SW 6 7 3 4 1017.1 1017.1 1.2
22/07:00am 9.7 8.7 8.8 94 0.4 WSW 4 6 2 3 1016.8 1016.8 1.2
22/06:30am 9.7 8.3 8.8 94 0.4 SW 6 7 3 4 1016.7 1016.7 1.2
22/06:00am 9.1 8.6 7.9 92 0.6 CALM 0 0 0 0 1016.3 1016.3 1.2
22/05:30am 9.9 9.6 8.7 92 0.6 CALM 0 0 0 0 1016.1 1016.1 1.2

Other formats

Comma delimited format used in spreadsheet applications
http://www.bom.gov.au/fwo/IDT60801/IDT60801.94988.axf

JavaScript Object Notation format (JSON) in row-major order
http://www.bom.gov.au/fwo/IDT60801/IDT60801.94988.json

Data quality

Most of these data are generated automatically and are frequently updated. Quality checks on data are not normally performed. It is possible for incorrect values to appear. Refer to information at About Latest Weather Observations and please check the disclaimer before using these data.